sensor_id;sensor_type;location;lat;lon;timestamp;P1;durP1;ratioP1;P2;durP2;ratioP2
23745;SDS011;12053;48.878;9.632;2023-11-21T00:00:14;12.50;;;3.92;;
23745;SDS011;12053;48.878;9.632;2023-11-21T00:02:41;8.02;;;3.72;;
23745;SDS011;12053;48.878;9.632;2023-11-21T00:05:09;14.25;;;5.35;;
23745;SDS011;12053;48.878;9.632;2023-11-21T00:07:37;15.73;;;5.50;;
23745;SDS011;12053;48.878;9.632;2023-11-21T00:10:04;12.55;;;5.32;;
23745;SDS011;12053;48.878;9.632;2023-11-21T00:12:32;14.00;;;5.45;;
23745;SDS011;12053;48.878;9.632;2023-11-21T00:15:00;19.75;;;5.80;;
23745;SDS011;12053;48.878;9.632;2023-11-21T00:17:27;14.15;;;5.40;;
23745;SDS011;12053;48.878;9.632;2023-11-21T00:19:55;16.45;;;5.80;;
23745;SDS011;12053;48.878;9.632;2023-11-21T00:22:22;9.52;;;5.30;;
23745;SDS011;12053;48.878;9.632;2023-11-21T00:24:49;17.20;;;6.28;;
23745;SDS011;12053;48.878;9.632;2023-11-21T00:27:16;14.07;;;5.10;;
23745;SDS011;12053;48.878;9.632;2023-11-21T00:29:43;18.42;;;6.13;;
23745;SDS011;12053;48.878;9.632;2023-11-21T00:32:11;11.85;;;4.82;;
23745;SDS011;12053;48.878;9.632;2023-11-21T00:34:38;14.15;;;5.20;;
23745;SDS011;12053;48.878;9.632;2023-11-21T00:37:06;14.25;;;4.68;;
23745;SDS011;12053;48.878;9.632;2023-11-21T00:39:34;16.98;;;5.50;;
23745;SDS011;12053;48.878;9.632;2023-11-21T00:42:01;13.35;;;5.00;;
23745;SDS011;12053;48.878;9.632;2023-11-21T00:44:28;15.55;;;4.93;;
23745;SDS011;12053;48.878;9.632;2023-11-21T00:46:56;13.65;;;4.70;;
23745;SDS011;12053;48.878;9.632;2023-11-21T00:49:23;10.32;;;4.57;;
23745;SDS011;12053;48.878;9.632;2023-11-21T00:51:50;10.20;;;4.70;;
23745;SDS011;12053;48.878;9.632;2023-11-21T00:54:17;13.40;;;4.43;;
23745;SDS011;12053;48.878;9.632;2023-11-21T00:56:44;9.32;;;4.20;;
23745;SDS011;12053;48.878;9.632;2023-11-21T00:59:13;11.73;;;4.38;;
23745;SDS011;12053;48.878;9.632;2023-11-21T01:01:40;14.13;;;5.22;;
23745;SDS011;12053;48.878;9.632;2023-11-21T01:04:08;13.70;;;5.35;;
23745;SDS011;12053;48.878;9.632;2023-11-21T01:06:35;12.75;;;4.95;;
23745;SDS011;12053;48.878;9.632;2023-11-21T01:09:02;11.38;;;5.13;;
23745;SDS011;12053;48.878;9.632;2023-11-21T01:11:34;15.57;;;6.00;;
23745;SDS011;12053;48.878;9.632;2023-11-21T01:14:03;12.75;;;6.00;;
23745;SDS011;12053;48.878;9.632;2023-11-21T01:16:31;17.88;;;6.28;;
23745;SDS011;12053;48.878;9.632;2023-11-21T01:19:01;14.95;;;5.90;;
23745;SDS011;12053;48.878;9.632;2023-11-21T01:21:30;11.77;;;5.80;;
23745;SDS011;12053;48.878;9.632;2023-11-21T01:23:58;11.77;;;5.68;;
23745;SDS011;12053;48.878;9.632;2023-11-21T01:26:25;14.48;;;5.28;;
23745;SDS011;12053;48.878;9.632;2023-11-21T01:28:52;11.75;;;5.15;;
23745;SDS011;12053;48.878;9.632;2023-11-21T01:31:19;18.00;;;5.97;;
23745;SDS011;12053;48.878;9.632;2023-11-21T01:33:47;12.45;;;5.10;;
23745;SDS011;12053;48.878;9.632;2023-11-21T01:36:14;11.43;;;5.38;;
23745;SDS011;12053;48.878;9.632;2023-11-21T01:38:42;13.93;;;5.93;;
23745;SDS011;12053;48.878;9.632;2023-11-21T01:41:09;14.40;;;4.70;;
23745;SDS011;12053;48.878;9.632;2023-11-21T01:43:37;10.60;;;4.65;;
23745;SDS011;12053;48.878;9.632;2023-11-21T01:46:05;10.40;;;4.88;;
23745;SDS011;12053;48.878;9.632;2023-11-21T01:48:32;11.50;;;5.20;;
23745;SDS011;12053;48.878;9.632;2023-11-21T01:51:01;15.05;;;5.85;;
23745;SDS011;12053;48.878;9.632;2023-11-21T01:53:28;12.40;;;4.93;;
23745;SDS011;12053;48.878;9.632;2023-11-21T01:55:56;17.02;;;5.50;;
23745;SDS011;12053;48.878;9.632;2023-11-21T01:58:24;17.58;;;5.75;;
23745;SDS011;12053;48.878;9.632;2023-11-21T02:00:51;14.25;;;5.30;;
23745;SDS011;12053;48.878;9.632;2023-11-21T02:03:21;14.18;;;5.72;;
23745;SDS011;12053;48.878;9.632;2023-11-21T02:05:48;14.18;;;5.22;;
23745;SDS011;12053;48.878;9.632;2023-11-21T02:08:15;16.10;;;6.05;;
23745;SDS011;12053;48.878;9.632;2023-11-21T02:10:42;13.77;;;6.50;;
23745;SDS011;12053;48.878;9.632;2023-11-21T02:13:10;15.23;;;6.88;;
23745;SDS011;12053;48.878;9.632;2023-11-21T02:15:40;16.67;;;7.40;;
23745;SDS011;12053;48.878;9.632;2023-11-21T02:18:07;16.15;;;7.13;;
23745;SDS011;12053;48.878;9.632;2023-11-21T02:20:37;14.43;;;7.20;;
23745;SDS011;12053;48.878;9.632;2023-11-21T02:23:07;14.43;;;6.22;;
23745;SDS011;12053;48.878;9.632;2023-11-21T02:25:35;9.82;;;6.40;;
23745;SDS011;12053;48.878;9.632;2023-11-21T02:28:03;10.63;;;5.45;;
23745;SDS011;12053;48.878;9.632;2023-11-21T02:30:32;14.60;;;5.68;;
23745;SDS011;12053;48.878;9.632;2023-11-21T02:33:00;12.15;;;5.53;;
23745;SDS011;12053;48.878;9.632;2023-11-21T02:35:29;13.30;;;5.18;;
23745;SDS011;12053;48.878;9.632;2023-11-21T02:37:58;6.95;;;4.88;;
23745;SDS011;12053;48.878;9.632;2023-11-21T02:40:25;9.55;;;4.90;;
23745;SDS011;12053;48.878;9.632;2023-11-21T02:42:53;7.82;;;4.28;;
23745;SDS011;12053;48.878;9.632;2023-11-21T02:45:20;11.85;;;4.70;;
23745;SDS011;12053;48.878;9.632;2023-11-21T02:47:48;8.27;;;3.97;;
23745;SDS011;12053;48.878;9.632;2023-11-21T02:50:16;7.45;;;3.80;;
23745;SDS011;12053;48.878;9.632;2023-11-21T02:52:45;9.32;;;4.10;;
23745;SDS011;12053;48.878;9.632;2023-11-21T02:55:12;9.18;;;3.38;;
23745;SDS011;12053;48.878;9.632;2023-11-21T02:57:40;7.78;;;3.10;;
23745;SDS011;12053;48.878;9.632;2023-11-21T03:00:07;11.05;;;3.38;;
23745;SDS011;12053;48.878;9.632;2023-11-21T03:02:36;5.55;;;3.00;;
23745;SDS011;12053;48.878;9.632;2023-11-21T03:05:06;4.38;;;2.33;;
23745;SDS011;12053;48.878;9.632;2023-11-21T03:07:36;8.52;;;2.10;;
23745;SDS011;12053;48.878;9.632;2023-11-21T03:10:03;8.02;;;2.28;;
23745;SDS011;12053;48.878;9.632;2023-11-21T03:12:31;6.50;;;2.70;;
23745;SDS011;12053;48.878;9.632;2023-11-21T03:14:58;4.82;;;2.08;;
23745;SDS011;12053;48.878;9.632;2023-11-21T03:17:25;8.35;;;2.40;;
23745;SDS011;12053;48.878;9.632;2023-11-21T03:19:52;6.10;;;2.25;;
23745;SDS011;12053;48.878;9.632;2023-11-21T03:22:20;9.18;;;2.45;;
23745;SDS011;12053;48.878;9.632;2023-11-21T03:24:48;6.72;;;1.95;;
23745;SDS011;12053;48.878;9.632;2023-11-21T03:27:15;7.45;;;2.15;;
23745;SDS011;12053;48.878;9.632;2023-11-21T03:29:42;8.93;;;2.40;;
23745;SDS011;12053;48.878;9.632;2023-11-21T03:32:10;3.45;;;2.03;;
23745;SDS011;12053;48.878;9.632;2023-11-21T03:34:49;6.63;;;1.95;;
23745;SDS011;12053;48.878;9.632;2023-11-21T03:37:19;6.55;;;2.45;;
23745;SDS011;12053;48.878;9.632;2023-11-21T03:39:47;4.55;;;2.40;;
23745;SDS011;12053;48.878;9.632;2023-11-21T03:42:14;6.80;;;2.47;;
23745;SDS011;12053;48.878;9.632;2023-11-21T03:44:41;6.55;;;2.35;;
23745;SDS011;12053;48.878;9.632;2023-11-21T03:47:08;5.35;;;2.50;;
23745;SDS011;12053;48.878;9.632;2023-11-21T03:49:35;4.72;;;2.38;;
23745;SDS011;12053;48.878;9.632;2023-11-21T03:52:03;7.85;;;2.08;;
23745;SDS011;12053;48.878;9.632;2023-11-21T03:54:30;4.85;;;2.60;;
23745;SDS011;12053;48.878;9.632;2023-11-21T03:56:57;10.00;;;2.80;;
23745;SDS011;12053;48.878;9.632;2023-11-21T03:59:24;6.38;;;2.17;;
23745;SDS011;12053;48.878;9.632;2023-11-21T04:01:51;5.00;;;1.92;;
23745;SDS011;12053;48.878;9.632;2023-11-21T04:04:18;4.22;;;1.98;;
23745;SDS011;12053;48.878;9.632;2023-11-21T04:06:46;4.18;;;1.92;;
23745;SDS011;12053;48.878;9.632;2023-11-21T04:09:13;4.40;;;2.85;;
23745;SDS011;12053;48.878;9.632;2023-11-21T04:11:40;6.97;;;2.83;;
23745;SDS011;12053;48.878;9.632;2023-11-21T04:14:09;4.93;;;3.60;;
23745;SDS011;12053;48.878;9.632;2023-11-21T04:16:36;7.07;;;3.15;;
23745;SDS011;12053;48.878;9.632;2023-11-21T04:19:03;5.15;;;3.28;;
23745;SDS011;12053;48.878;9.632;2023-11-21T04:21:30;4.93;;;3.10;;
23745;SDS011;12053;48.878;9.632;2023-11-21T04:23:59;7.78;;;3.13;;
23745;SDS011;12053;48.878;9.632;2023-11-21T04:26:26;4.10;;;3.03;;
23745;SDS011;12053;48.878;9.632;2023-11-21T04:28:53;5.20;;;2.60;;
23745;SDS011;12053;48.878;9.632;2023-11-21T04:31:20;5.05;;;3.08;;
23745;SDS011;12053;48.878;9.632;2023-11-21T04:33:48;5.47;;;2.88;;
23745;SDS011;12053;48.878;9.632;2023-11-21T04:36:15;6.55;;;3.05;;
23745;SDS011;12053;48.878;9.632;2023-11-21T04:38:42;5.88;;;3.25;;
23745;SDS011;12053;48.878;9.632;2023-11-21T04:41:10;7.43;;;3.60;;
23745;SDS011;12053;48.878;9.632;2023-11-21T04:43:38;3.80;;;3.20;;
23745;SDS011;12053;48.878;9.632;2023-11-21T04:46:05;5.38;;;3.33;;
23745;SDS011;12053;48.878;9.632;2023-11-21T04:48:33;6.18;;;3.30;;
23745;SDS011;12053;48.878;9.632;2023-11-21T04:51:00;4.00;;;3.33;;
23745;SDS011;12053;48.878;9.632;2023-11-21T04:53:27;5.30;;;3.45;;
23745;SDS011;12053;48.878;9.632;2023-11-21T04:55:54;7.97;;;4.00;;
23745;SDS011;12053;48.878;9.632;2023-11-21T04:58:22;4.53;;;3.00;;
23745;SDS011;12053;48.878;9.632;2023-11-21T05:00:49;7.32;;;3.85;;
23745;SDS011;12053;48.878;9.632;2023-11-21T05:03:16;4.70;;;2.72;;
23745;SDS011;12053;48.878;9.632;2023-11-21T05:05:43;6.10;;;2.80;;
23745;SDS011;12053;48.878;9.632;2023-11-21T05:08:11;3.38;;;2.40;;
23745;SDS011;12053;48.878;9.632;2023-11-21T05:10:38;6.93;;;3.20;;
23745;SDS011;12053;48.878;9.632;2023-11-21T05:13:05;8.20;;;2.85;;
23745;SDS011;12053;48.878;9.632;2023-11-21T05:15:36;5.10;;;3.13;;
23745;SDS011;12053;48.878;9.632;2023-11-21T05:18:05;7.07;;;2.88;;
23745;SDS011;12053;48.878;9.632;2023-11-21T05:20:33;7.10;;;3.45;;
23745;SDS011;12053;48.878;9.632;2023-11-21T05:23:00;6.50;;;4.18;;
23745;SDS011;12053;48.878;9.632;2023-11-21T05:25:27;6.10;;;3.20;;
23745;SDS011;12053;48.878;9.632;2023-11-21T05:27:54;5.20;;;4.00;;
23745;SDS011;12053;48.878;9.632;2023-11-21T05:30:21;7.70;;;3.72;;
23745;SDS011;12053;48.878;9.632;2023-11-21T05:32:49;9.25;;;4.20;;
23745;SDS011;12053;48.878;9.632;2023-11-21T05:35:16;6.60;;;3.90;;
23745;SDS011;12053;48.878;9.632;2023-11-21T05:37:44;4.50;;;3.97;;
23745;SDS011;12053;48.878;9.632;2023-11-21T05:40:12;6.82;;;4.30;;
23745;SDS011;12053;48.878;9.632;2023-11-21T05:42:40;7.35;;;5.18;;
23745;SDS011;12053;48.878;9.632;2023-11-21T05:45:07;9.77;;;5.43;;
23745;SDS011;12053;48.878;9.632;2023-11-21T05:47:43;7.80;;;6.07;;
23745;SDS011;12053;48.878;9.632;2023-11-21T05:50:13;9.20;;;5.63;;
23745;SDS011;12053;48.878;9.632;2023-11-21T05:52:44;8.27;;;6.05;;
23745;SDS011;12053;48.878;9.632;2023-11-21T05:55:11;8.55;;;5.75;;
23745;SDS011;12053;48.878;9.632;2023-11-21T05:57:40;8.43;;;5.32;;
23745;SDS011;12053;48.878;9.632;2023-11-21T06:00:08;8.38;;;4.80;;
23745;SDS011;12053;48.878;9.632;2023-11-21T06:02:54;9.60;;;5.43;;
23745;SDS011;12053;48.878;9.632;2023-11-21T06:05:22;13.13;;;7.70;;
23745;SDS011;12053;48.878;9.632;2023-11-21T06:07:51;13.50;;;7.65;;
23745;SDS011;12053;48.878;9.632;2023-11-21T06:10:22;11.77;;;8.52;;
23745;SDS011;12053;48.878;9.632;2023-11-21T06:12:51;10.43;;;7.82;;
23745;SDS011;12053;48.878;9.632;2023-11-21T06:15:19;12.73;;;8.18;;
23745;SDS011;12053;48.878;9.632;2023-11-21T06:17:47;14.05;;;9.13;;
23745;SDS011;12053;48.878;9.632;2023-11-21T06:20:21;14.00;;;10.60;;
23745;SDS011;12053;48.878;9.632;2023-11-21T06:22:49;11.30;;;7.43;;
23745;SDS011;12053;48.878;9.632;2023-11-21T06:25:17;12.13;;;6.88;;
23745;SDS011;12053;48.878;9.632;2023-11-21T06:27:45;12.73;;;7.07;;
23745;SDS011;12053;48.878;9.632;2023-11-21T06:30:13;10.35;;;8.02;;
23745;SDS011;12053;48.878;9.632;2023-11-21T06:32:41;10.07;;;7.43;;
23745;SDS011;12053;48.878;9.632;2023-11-21T06:35:13;12.55;;;8.10;;
23745;SDS011;12053;48.878;9.632;2023-11-21T06:37:42;9.15;;;6.55;;
23745;SDS011;12053;48.878;9.632;2023-11-21T06:40:15;6.90;;;5.40;;
23745;SDS011;12053;48.878;9.632;2023-11-21T06:42:44;9.32;;;6.40;;
23745;SDS011;12053;48.878;9.632;2023-11-21T06:45:13;7.80;;;5.15;;
23745;SDS011;12053;48.878;9.632;2023-11-21T06:47:41;8.55;;;6.82;;
23745;SDS011;12053;48.878;9.632;2023-11-21T06:50:09;14.73;;;9.25;;
23745;SDS011;12053;48.878;9.632;2023-11-21T06:52:36;15.57;;;9.65;;
23745;SDS011;12053;48.878;9.632;2023-11-21T06:55:03;11.05;;;7.47;;
23745;SDS011;12053;48.878;9.632;2023-11-21T06:57:31;8.13;;;6.50;;
23745;SDS011;12053;48.878;9.632;2023-11-21T06:59:58;7.03;;;6.00;;
23745;SDS011;12053;48.878;9.632;2023-11-21T07:02:26;6.85;;;6.07;;
23745;SDS011;12053;48.878;9.632;2023-11-21T07:04:54;8.02;;;5.30;;
23745;SDS011;12053;48.878;9.632;2023-11-21T07:07:21;5.20;;;4.20;;
23745;SDS011;12053;48.878;9.632;2023-11-21T07:09:48;6.78;;;4.55;;
23745;SDS011;12053;48.878;9.632;2023-11-21T07:12:16;6.13;;;3.95;;
23745;SDS011;12053;48.878;9.632;2023-11-21T07:14:44;5.40;;;3.60;;
23745;SDS011;12053;48.878;9.632;2023-11-21T07:17:11;6.18;;;4.18;;
23745;SDS011;12053;48.878;9.632;2023-11-21T07:19:39;5.45;;;4.22;;
23745;SDS011;12053;48.878;9.632;2023-11-21T07:22:07;5.43;;;3.60;;
23745;SDS011;12053;48.878;9.632;2023-11-21T07:24:35;5.82;;;4.20;;
23745;SDS011;12053;48.878;9.632;2023-11-21T07:27:03;4.85;;;4.38;;
23745;SDS011;12053;48.878;9.632;2023-11-21T07:29:30;6.18;;;4.22;;
23745;SDS011;12053;48.878;9.632;2023-11-21T07:31:57;5.72;;;3.55;;
23745;SDS011;12053;48.878;9.632;2023-11-21T07:34:25;3.70;;;3.17;;
23745;SDS011;12053;48.878;9.632;2023-11-21T07:36:52;3.90;;;3.25;;
23745;SDS011;12053;48.878;9.632;2023-11-21T07:39:19;4.63;;;3.35;;
23745;SDS011;12053;48.878;9.632;2023-11-21T07:41:47;5.18;;;3.20;;
23745;SDS011;12053;48.878;9.632;2023-11-21T07:44:18;5.03;;;3.42;;
23745;SDS011;12053;48.878;9.632;2023-11-21T07:46:46;4.93;;;3.40;;
23745;SDS011;12053;48.878;9.632;2023-11-21T07:49:14;4.03;;;3.30;;
23745;SDS011;12053;48.878;9.632;2023-11-21T07:51:43;2.97;;;2.78;;
23745;SDS011;12053;48.878;9.632;2023-11-21T07:54:10;5.63;;;3.47;;
23745;SDS011;12053;48.878;9.632;2023-11-21T07:56:38;6.10;;;3.60;;
23745;SDS011;12053;48.878;9.632;2023-11-21T07:59:05;3.17;;;2.88;;
23745;SDS011;12053;48.878;9.632;2023-11-21T08:01:32;3.85;;;2.72;;
23745;SDS011;12053;48.878;9.632;2023-11-21T08:03:59;3.75;;;3.38;;
23745;SDS011;12053;48.878;9.632;2023-11-21T08:06:31;3.50;;;3.20;;
23745;SDS011;12053;48.878;9.632;2023-11-21T08:08:59;4.25;;;2.90;;
23745;SDS011;12053;48.878;9.632;2023-11-21T08:11:26;4.97;;;3.53;;
23745;SDS011;12053;48.878;9.632;2023-11-21T08:13:55;5.43;;;3.20;;
23745;SDS011;12053;48.878;9.632;2023-11-21T08:16:23;5.22;;;3.50;;
23745;SDS011;12053;48.878;9.632;2023-11-21T08:18:51;3.70;;;3.22;;
23745;SDS011;12053;48.878;9.632;2023-11-21T08:21:18;3.22;;;2.92;;
23745;SDS011;12053;48.878;9.632;2023-11-21T08:23:45;4.45;;;3.42;;
23745;SDS011;12053;48.878;9.632;2023-11-21T08:26:15;3.70;;;2.60;;
23745;SDS011;12053;48.878;9.632;2023-11-21T08:28:44;3.42;;;2.50;;
23745;SDS011;12053;48.878;9.632;2023-11-21T08:31:13;2.45;;;2.25;;
23745;SDS011;12053;48.878;9.632;2023-11-21T08:33:41;3.58;;;2.30;;
23745;SDS011;12053;48.878;9.632;2023-11-21T08:36:09;3.60;;;2.50;;
23745;SDS011;12053;48.878;9.632;2023-11-21T08:38:38;4.55;;;2.85;;
23745;SDS011;12053;48.878;9.632;2023-11-21T08:41:06;3.47;;;2.75;;
23745;SDS011;12053;48.878;9.632;2023-11-21T08:43:37;6.38;;;3.00;;
23745;SDS011;12053;48.878;9.632;2023-11-21T08:46:07;5.03;;;3.05;;
23745;SDS011;12053;48.878;9.632;2023-11-21T08:48:35;4.72;;;3.25;;
23745;SDS011;12053;48.878;9.632;2023-11-21T08:51:03;6.78;;;2.70;;
23745;SDS011;12053;48.878;9.632;2023-11-21T08:53:30;4.43;;;3.05;;
23745;SDS011;12053;48.878;9.632;2023-11-21T08:55:58;3.75;;;3.05;;
23745;SDS011;12053;48.878;9.632;2023-11-21T08:58:26;3.45;;;2.30;;
23745;SDS011;12053;48.878;9.632;2023-11-21T09:00:53;2.83;;;2.30;;
23745;SDS011;12053;48.878;9.632;2023-11-21T09:03:20;2.38;;;2.17;;
23745;SDS011;12053;48.878;9.632;2023-11-21T09:05:48;3.78;;;2.53;;
23745;SDS011;12053;48.878;9.632;2023-11-21T09:08:15;6.40;;;3.08;;
23745;SDS011;12053;48.878;9.632;2023-11-21T09:10:42;3.05;;;2.58;;
23745;SDS011;12053;48.878;9.632;2023-11-21T09:13:13;8.25;;;3.80;;
23745;SDS011;12053;48.878;9.632;2023-11-21T09:15:43;4.53;;;3.08;;
23745;SDS011;12053;48.878;9.632;2023-11-21T09:18:15;4.68;;;2.40;;
23745;SDS011;12053;48.878;9.632;2023-11-21T09:20:42;3.13;;;2.40;;
23745;SDS011;12053;48.878;9.632;2023-11-21T09:23:12;5.20;;;3.38;;
23745;SDS011;12053;48.878;9.632;2023-11-21T09:25:39;2.33;;;2.13;;
23745;SDS011;12053;48.878;9.632;2023-11-21T09:28:07;4.32;;;3.30;;
23745;SDS011;12053;48.878;9.632;2023-11-21T09:30:34;3.00;;;2.33;;
23745;SDS011;12053;48.878;9.632;2023-11-21T09:33:02;2.58;;;2.38;;
23745;SDS011;12053;48.878;9.632;2023-11-21T09:35:31;3.60;;;2.85;;
23745;SDS011;12053;48.878;9.632;2023-11-21T09:37:59;3.45;;;2.75;;
23745;SDS011;12053;48.878;9.632;2023-11-21T09:40:28;2.78;;;2.15;;
23745;SDS011;12053;48.878;9.632;2023-11-21T09:42:58;2.53;;;2.33;;
23745;SDS011;12053;48.878;9.632;2023-11-21T09:45:29;2.65;;;2.42;;
23745;SDS011;12053;48.878;9.632;2023-11-21T09:48:00;2.15;;;1.92;;
23745;SDS011;12053;48.878;9.632;2023-11-21T09:50:28;3.55;;;2.65;;
23745;SDS011;12053;48.878;9.632;2023-11-21T09:55:42;3.13;;;2.45;;
23745;SDS011;12053;48.878;9.632;2023-11-21T09:58:10;5.03;;;2.75;;
23745;SDS011;12053;48.878;9.632;2023-11-21T10:00:39;3.42;;;2.50;;
23745;SDS011;12053;48.878;9.632;2023-11-21T10:03:07;2.75;;;2.45;;
23745;SDS011;12053;48.878;9.632;2023-11-21T10:05:35;3.20;;;2.50;;
23745;SDS011;12053;48.878;9.632;2023-11-21T10:08:09;3.42;;;2.05;;
23745;SDS011;12053;48.878;9.632;2023-11-21T10:10:36;3.38;;;2.60;;
23745;SDS011;12053;48.878;9.632;2023-11-21T10:13:05;2.42;;;1.95;;
23745;SDS011;12053;48.878;9.632;2023-11-21T10:15:34;3.42;;;2.50;;
23745;SDS011;12053;48.878;9.632;2023-11-21T10:18:05;2.28;;;1.85;;
23745;SDS011;12053;48.878;9.632;2023-11-21T10:20:33;3.08;;;2.10;;
23745;SDS011;12053;48.878;9.632;2023-11-21T10:23:01;4.40;;;2.30;;
23745;SDS011;12053;48.878;9.632;2023-11-21T10:25:29;1.90;;;1.80;;
23745;SDS011;12053;48.878;9.632;2023-11-21T10:27:57;4.05;;;1.80;;
23745;SDS011;12053;48.878;9.632;2023-11-21T10:30:28;3.67;;;1.90;;
23745;SDS011;12053;48.878;9.632;2023-11-21T10:32:59;2.47;;;1.77;;
23745;SDS011;12053;48.878;9.632;2023-11-21T10:35:39;1.60;;;1.50;;
23745;SDS011;12053;48.878;9.632;2023-11-21T10:38:06;2.15;;;1.60;;
23745;SDS011;12053;48.878;9.632;2023-11-21T10:40:42;2.03;;;1.92;;
23745;SDS011;12053;48.878;9.632;2023-11-21T10:43:11;1.77;;;1.67;;
23745;SDS011;12053;48.878;9.632;2023-11-21T10:45:42;2.08;;;1.77;;
23745;SDS011;12053;48.878;9.632;2023-11-21T10:48:10;2.42;;;1.88;;
23745;SDS011;12053;48.878;9.632;2023-11-21T10:50:37;2.00;;;1.90;;
23745;SDS011;12053;48.878;9.632;2023-11-21T10:53:05;2.15;;;1.88;;
23745;SDS011;12053;48.878;9.632;2023-11-21T10:55:32;1.40;;;1.30;;
23745;SDS011;12053;48.878;9.632;2023-11-21T10:58:01;2.63;;;1.35;;
23745;SDS011;12053;48.878;9.632;2023-11-21T11:00:29;1.95;;;1.20;;
23745;SDS011;12053;48.878;9.632;2023-11-21T11:02:57;2.40;;;1.80;;
23745;SDS011;12053;48.878;9.632;2023-11-21T11:05:26;8.40;;;2.08;;
23745;SDS011;12053;48.878;9.632;2023-11-21T11:07:58;1.70;;;1.60;;
23745;SDS011;12053;48.878;9.632;2023-11-21T11:10:28;3.63;;;3.22;;
23745;SDS011;12053;48.878;9.632;2023-11-21T11:12:58;2.47;;;1.80;;
23745;SDS011;12053;48.878;9.632;2023-11-21T11:15:26;3.72;;;2.45;;
23745;SDS011;12053;48.878;9.632;2023-11-21T11:17:54;3.10;;;2.22;;
23745;SDS011;12053;48.878;9.632;2023-11-21T11:20:26;2.83;;;2.50;;
23745;SDS011;12053;48.878;9.632;2023-11-21T11:26:28;2.50;;;2.30;;
23745;SDS011;12053;48.878;9.632;2023-11-21T11:29:14;4.63;;;3.35;;
23745;SDS011;12053;48.878;9.632;2023-11-21T11:36:53;2.20;;;2.00;;
23745;SDS011;12053;48.878;9.632;2023-11-21T11:39:29;5.68;;;2.67;;
23745;SDS011;12053;48.878;9.632;2023-11-21T11:41:57;2.97;;;1.90;;
23745;SDS011;12053;48.878;9.632;2023-11-21T11:47:14;2.42;;;2.20;;
23745;SDS011;12053;48.878;9.632;2023-11-21T11:55:01;5.28;;;1.92;;
23745;SDS011;12053;48.878;9.632;2023-11-21T11:57:30;5.25;;;3.13;;
23745;SDS011;12053;48.878;9.632;2023-11-21T12:02:53;13.38;;;6.72;;
23745;SDS011;12053;48.878;9.632;2023-11-21T12:05:21;7.57;;;3.25;;
23745;SDS011;12053;48.878;9.632;2023-11-21T12:07:53;3.33;;;2.67;;
23745;SDS011;12053;48.878;9.632;2023-11-21T12:10:22;3.27;;;1.93;;
23745;SDS011;12053;48.878;9.632;2023-11-21T12:12:52;5.60;;;2.55;;
23745;SDS011;12053;48.878;9.632;2023-11-21T12:15:19;2.20;;;2.00;;
23745;SDS011;12053;48.878;9.632;2023-11-21T12:17:48;3.53;;;2.10;;
23745;SDS011;12053;48.878;9.632;2023-11-21T12:20:17;4.03;;;2.00;;
23745;SDS011;12053;48.878;9.632;2023-11-21T12:22:46;4.85;;;3.25;;
23745;SDS011;12053;48.878;9.632;2023-11-21T12:25:14;7.07;;;3.40;;
23745;SDS011;12053;48.878;9.632;2023-11-21T12:27:45;8.40;;;3.50;;
23745;SDS011;12053;48.878;9.632;2023-11-21T12:30:18;4.22;;;2.25;;
23745;SDS011;12053;48.878;9.632;2023-11-21T12:32:52;4.60;;;2.60;;
23745;SDS011;12053;48.878;9.632;2023-11-21T12:35:21;3.92;;;3.08;;
23745;SDS011;12053;48.878;9.632;2023-11-21T12:37:48;6.70;;;3.75;;
23745;SDS011;12053;48.878;9.632;2023-11-21T12:40:17;7.03;;;3.47;;
23745;SDS011;12053;48.878;9.632;2023-11-21T12:42:47;5.60;;;2.85;;
23745;SDS011;12053;48.878;9.632;2023-11-21T12:45:28;2.28;;;2.08;;
23745;SDS011;12053;48.878;9.632;2023-11-21T12:48:04;3.33;;;3.03;;
23745;SDS011;12053;48.878;9.632;2023-11-21T12:50:37;3.53;;;3.22;;
23745;SDS011;12053;48.878;9.632;2023-11-21T12:53:06;4.30;;;3.88;;
23745;SDS011;12053;48.878;9.632;2023-11-21T12:55:35;3.13;;;2.90;;
23745;SDS011;12053;48.878;9.632;2023-11-21T12:58:07;4.82;;;4.30;;
23745;SDS011;12053;48.878;9.632;2023-11-21T13:00:38;3.63;;;3.33;;
23745;SDS011;12053;48.878;9.632;2023-11-21T13:03:06;5.05;;;3.15;;
23745;SDS011;12053;48.878;9.632;2023-11-21T13:05:34;3.25;;;2.95;;
23745;SDS011;12053;48.878;9.632;2023-11-21T13:08:06;6.28;;;3.70;;
23745;SDS011;12053;48.878;9.632;2023-11-21T13:10:35;4.00;;;3.55;;
23745;SDS011;12053;48.878;9.632;2023-11-21T13:13:04;3.97;;;3.47;;
23745;SDS011;12053;48.878;9.632;2023-11-21T13:15:35;4.57;;;1.98;;
23745;SDS011;12053;48.878;9.632;2023-11-21T13:18:06;3.05;;;2.67;;
23745;SDS011;12053;48.878;9.632;2023-11-21T13:20:33;2.08;;;1.80;;
23745;SDS011;12053;48.878;9.632;2023-11-21T13:23:06;2.30;;;2.10;;
23745;SDS011;12053;48.878;9.632;2023-11-21T13:25:34;2.30;;;1.80;;
23745;SDS011;12053;48.878;9.632;2023-11-21T13:28:03;2.67;;;1.55;;
23745;SDS011;12053;48.878;9.632;2023-11-21T13:30:30;0.70;;;0.70;;
23745;SDS011;12053;48.878;9.632;2023-11-21T13:33:04;0.82;;;0.82;;
23745;SDS011;12053;48.878;9.632;2023-11-21T13:35:33;3.17;;;1.58;;
23745;SDS011;12053;48.878;9.632;2023-11-21T13:38:04;2.00;;;1.80;;
23745;SDS011;12053;48.878;9.632;2023-11-21T13:40:33;2.45;;;2.10;;
23745;SDS011;12053;48.878;9.632;2023-11-21T13:43:11;5.30;;;4.57;;
23745;SDS011;12053;48.878;9.632;2023-11-21T13:45:42;5.97;;;4.45;;
23745;SDS011;12053;48.878;9.632;2023-11-21T13:48:11;3.58;;;2.38;;
23745;SDS011;12053;48.878;9.632;2023-11-21T13:50:51;2.58;;;1.60;;
23745;SDS011;12053;48.878;9.632;2023-11-21T13:53:24;1.90;;;1.60;;
23745;SDS011;12053;48.878;9.632;2023-11-21T13:55:51;1.35;;;1.25;;
23745;SDS011;12053;48.878;9.632;2023-11-21T13:58:24;3.72;;;2.03;;
23745;SDS011;12053;48.878;9.632;2023-11-21T14:01:05;6.38;;;3.33;;
23745;SDS011;12053;48.878;9.632;2023-11-21T14:03:39;4.72;;;3.47;;
23745;SDS011;12053;48.878;9.632;2023-11-21T14:06:18;8.52;;;4.72;;
23745;SDS011;12053;48.878;9.632;2023-11-21T14:08:50;8.38;;;3.63;;
23745;SDS011;12053;48.878;9.632;2023-11-21T14:11:19;7.25;;;4.32;;
23745;SDS011;12053;48.878;9.632;2023-11-21T14:13:49;8.40;;;5.05;;
23745;SDS011;12053;48.878;9.632;2023-11-21T14:16:17;8.38;;;5.30;;
23745;SDS011;12053;48.878;9.632;2023-11-21T14:18:44;9.93;;;5.85;;
23745;SDS011;12053;48.878;9.632;2023-11-21T14:21:30;8.32;;;4.50;;
23745;SDS011;12053;48.878;9.632;2023-11-21T14:23:58;4.72;;;3.40;;
23745;SDS011;12053;48.878;9.632;2023-11-21T14:26:26;6.32;;;3.88;;
23745;SDS011;12053;48.878;9.632;2023-11-21T14:28:55;6.32;;;4.60;;
23745;SDS011;12053;48.878;9.632;2023-11-21T14:31:23;6.43;;;4.70;;
23745;SDS011;12053;48.878;9.632;2023-11-21T14:33:50;5.43;;;4.60;;
23745;SDS011;12053;48.878;9.632;2023-11-21T14:36:18;8.57;;;4.50;;
23745;SDS011;12053;48.878;9.632;2023-11-21T14:38:45;5.03;;;4.00;;
23745;SDS011;12053;48.878;9.632;2023-11-21T14:41:12;4.57;;;4.00;;
23745;SDS011;12053;48.878;9.632;2023-11-21T14:43:40;5.63;;;4.25;;
23745;SDS011;12053;48.878;9.632;2023-11-21T14:46:09;7.18;;;4.43;;
23745;SDS011;12053;48.878;9.632;2023-11-21T14:48:40;5.40;;;4.50;;
23745;SDS011;12053;48.878;9.632;2023-11-21T14:51:09;8.15;;;4.10;;
23745;SDS011;12053;48.878;9.632;2023-11-21T14:53:56;7.20;;;5.47;;
23745;SDS011;12053;48.878;9.632;2023-11-21T14:56:32;4.80;;;3.80;;
23745;SDS011;12053;48.878;9.632;2023-11-21T14:59:00;5.00;;;4.00;;
23745;SDS011;12053;48.878;9.632;2023-11-21T15:01:42;7.23;;;5.00;;
23745;SDS011;12053;48.878;9.632;2023-11-21T15:04:22;7.47;;;5.20;;
23745;SDS011;12053;48.878;9.632;2023-11-21T15:07:02;8.40;;;6.63;;
23745;SDS011;12053;48.878;9.632;2023-11-21T15:09:30;7.93;;;6.03;;
23745;SDS011;12053;48.878;9.632;2023-11-21T15:12:01;5.80;;;5.15;;
23745;SDS011;12053;48.878;9.632;2023-11-21T15:14:45;11.20;;;7.97;;
23745;SDS011;12053;48.878;9.632;2023-11-21T15:19:48;15.30;;;9.85;;